Punto Fijo, Venezuela
Current Conditions -  °F | °C
As of 11:00 AM on Thursday 30 Oct 2014 (Local Time) from TNCA Reporting Station
Few Clouds Few Clouds  
Wind Chill: 90°   Ceiling: Unl
Heat Index: 100°   Visibility: 6mi
Dew Point: 75°   Wind: 16mph
Humidity: 62%   Direction: 80°E
Pressure: 29.83"   Gusts: NA
Location:  11.71°N, 70.2°W
Report Text: TNCA 301500Z 08014KT 060V120 9999 FEW022 32/24 Q1010 A2983 NOSIG
Loading
Personal Weather Stations






























Interactive Weather Map
Tropical Storm Tracking
New forecast layout! Learn more

10-Day Weather Forecast

Advertisements
Track Severe Weather on mobile